Hortensia, Argentina
Current Conditions -  °F | °C
As of 1:00 PM on Thursday 18 Dec 2014 (Local Time) from SAEZ Reporting Station
Few Clouds Few Clouds  
Wind Chill: 86°   Ceiling: Unl
Heat Index: 86°   Visibility: 6mi
Dew Point: 59°   Wind: 7mph
Humidity: 40%   Direction: 300°WNW
Pressure: 29.85"   Gusts: NA
Location:  35.93°S, 61.28°W
Report Text: SAEZ 181600Z 30006KT 260V350 9999 FEW050TCU 30/15 Q1011
Loading
Personal Weather Stations






























Interactive Weather Map New forecast layout! Learn more

10-Day Weather Forecast

Advertisements
Track Severe Weather on mobile